sensor_id;sensor_type;location;lat;lon;timestamp;P1;durP1;ratioP1;P2;durP2;ratioP2
61840;SDS011;47773;53.174;6.614;2022-08-23T00:01:12;12.45;;;5.78;;
61840;SDS011;47773;53.174;6.614;2022-08-23T00:03:39;15.18;;;6.57;;
61840;SDS011;47773;53.174;6.614;2022-08-23T00:06:05;12.45;;;6.50;;
61840;SDS011;47773;53.174;6.614;2022-08-23T00:08:31;17.27;;;6.60;;
61840;SDS011;47773;53.174;6.614;2022-08-23T00:10:57;12.63;;;6.78;;
61840;SDS011;47773;53.174;6.614;2022-08-23T00:13:23;16.45;;;6.63;;
61840;SDS011;47773;53.174;6.614;2022-08-23T00:15:49;19.30;;;6.20;;
61840;SDS011;47773;53.174;6.614;2022-08-23T00:18:15;12.68;;;6.20;;
61840;SDS011;47773;53.174;6.614;2022-08-23T00:20:40;10.82;;;5.85;;
61840;SDS011;47773;53.174;6.614;2022-08-23T00:23:06;10.23;;;5.90;;
61840;SDS011;47773;53.174;6.614;2022-08-23T00:25:32;9.82;;;5.63;;
61840;SDS011;47773;53.174;6.614;2022-08-23T00:27:59;11.80;;;6.75;;
61840;SDS011;47773;53.174;6.614;2022-08-23T00:30:24;9.02;;;5.63;;
61840;SDS011;47773;53.174;6.614;2022-08-23T00:32:50;11.82;;;5.78;;
61840;SDS011;47773;53.174;6.614;2022-08-23T00:35:17;9.23;;;5.63;;
61840;SDS011;47773;53.174;6.614;2022-08-23T00:37:44;13.20;;;6.20;;
61840;SDS011;47773;53.174;6.614;2022-08-23T00:40:11;17.27;;;6.38;;
61840;SDS011;47773;53.174;6.614;2022-08-23T00:45:55;11.52;;;5.68;;
61840;SDS011;47773;53.174;6.614;2022-08-23T00:48:47;10.23;;;5.72;;
61840;SDS011;47773;53.174;6.614;2022-08-23T00:51:22;11.38;;;5.68;;
61840;SDS011;47773;53.174;6.614;2022-08-23T00:54:02;13.43;;;4.75;;
61840;SDS011;47773;53.174;6.614;2022-08-23T00:56:30;9.60;;;5.10;;
61840;SDS011;47773;53.174;6.614;2022-08-23T00:58:58;13.55;;;5.32;;
61840;SDS011;47773;53.174;6.614;2022-08-23T01:01:23;8.93;;;5.00;;
61840;SDS011;47773;53.174;6.614;2022-08-23T01:03:50;10.95;;;5.20;;
61840;SDS011;47773;53.174;6.614;2022-08-23T01:06:21;13.02;;;5.47;;
61840;SDS011;47773;53.174;6.614;2022-08-23T01:08:56;10.88;;;5.18;;
61840;SDS011;47773;53.174;6.614;2022-08-23T01:17:14;10.02;;;5.07;;
61840;SDS011;47773;53.174;6.614;2022-08-23T01:19:57;13.05;;;5.88;;
61840;SDS011;47773;53.174;6.614;2022-08-23T01:22:32;13.07;;;5.75;;
61840;SDS011;47773;53.174;6.614;2022-08-23T01:25:06;16.52;;;6.47;;
61840;SDS011;47773;53.174;6.614;2022-08-23T01:27:35;10.88;;;6.50;;
61840;SDS011;47773;53.174;6.614;2022-08-23T01:30:06;13.10;;;6.70;;
61840;SDS011;47773;53.174;6.614;2022-08-23T01:32:34;19.08;;;6.93;;
61840;SDS011;47773;53.174;6.614;2022-08-23T01:35:06;11.32;;;6.30;;
61840;SDS011;47773;53.174;6.614;2022-08-23T01:37:32;10.55;;;6.88;;
61840;SDS011;47773;53.174;6.614;2022-08-23T01:39:58;11.55;;;6.80;;
61840;SDS011;47773;53.174;6.614;2022-08-23T01:42:23;12.75;;;6.50;;
61840;SDS011;47773;53.174;6.614;2022-08-23T01:44:49;11.10;;;7.07;;
61840;SDS011;47773;53.174;6.614;2022-08-23T01:47:15;9.95;;;5.90;;
61840;SDS011;47773;53.174;6.614;2022-08-23T01:49:41;10.02;;;6.20;;
61840;SDS011;47773;53.174;6.614;2022-08-23T01:52:07;9.43;;;5.88;;
61840;SDS011;47773;53.174;6.614;2022-08-23T01:54:32;12.20;;;6.53;;
61840;SDS011;47773;53.174;6.614;2022-08-23T01:56:58;17.55;;;5.57;;
61840;SDS011;47773;53.174;6.614;2022-08-23T01:59:24;12.18;;;5.75;;
61840;SDS011;47773;53.174;6.614;2022-08-23T02:01:50;10.70;;;6.03;;
61840;SDS011;47773;53.174;6.614;2022-08-23T02:04:17;13.00;;;5.97;;
61840;SDS011;47773;53.174;6.614;2022-08-23T02:06:43;11.57;;;6.07;;
61840;SDS011;47773;53.174;6.614;2022-08-23T02:09:09;11.00;;;6.00;;
61840;SDS011;47773;53.174;6.614;2022-08-23T02:11:36;9.00;;;5.70;;
61840;SDS011;47773;53.174;6.614;2022-08-23T02:14:05;8.55;;;5.50;;
61840;SDS011;47773;53.174;6.614;2022-08-23T02:16:35;11.75;;;5.78;;
61840;SDS011;47773;53.174;6.614;2022-08-23T02:19:06;9.10;;;6.28;;
61840;SDS011;47773;53.174;6.614;2022-08-23T02:21:34;9.95;;;6.20;;
61840;SDS011;47773;53.174;6.614;2022-08-23T02:24:05;13.73;;;7.43;;
61840;SDS011;47773;53.174;6.614;2022-08-23T02:26:37;10.55;;;6.00;;
61840;SDS011;47773;53.174;6.614;2022-08-23T02:29:04;9.48;;;6.05;;
61840;SDS011;47773;53.174;6.614;2022-08-23T02:31:31;11.15;;;6.40;;
61840;SDS011;47773;53.174;6.614;2022-08-23T02:33:57;14.35;;;6.55;;
61840;SDS011;47773;53.174;6.614;2022-08-23T02:36:24;8.05;;;5.47;;
61840;SDS011;47773;53.174;6.614;2022-08-23T02:38:51;12.48;;;5.90;;
61840;SDS011;47773;53.174;6.614;2022-08-23T02:41:18;7.03;;;5.35;;
61840;SDS011;47773;53.174;6.614;2022-08-23T02:43:43;8.10;;;5.07;;
61840;SDS011;47773;53.174;6.614;2022-08-23T02:46:09;9.57;;;5.65;;
61840;SDS011;47773;53.174;6.614;2022-08-23T02:48:35;9.15;;;5.53;;
61840;SDS011;47773;53.174;6.614;2022-08-23T02:51:05;9.48;;;5.55;;
61840;SDS011;47773;53.174;6.614;2022-08-23T02:53:32;14.02;;;6.85;;
61840;SDS011;47773;53.174;6.614;2022-08-23T02:55:58;11.50;;;6.82;;
61840;SDS011;47773;53.174;6.614;2022-08-23T02:58:24;12.80;;;6.43;;
61840;SDS011;47773;53.174;6.614;2022-08-23T03:00:50;10.27;;;6.43;;
61840;SDS011;47773;53.174;6.614;2022-08-23T03:03:17;8.85;;;6.40;;
61840;SDS011;47773;53.174;6.614;2022-08-23T03:05:44;11.65;;;6.00;;
61840;SDS011;47773;53.174;6.614;2022-08-23T03:08:10;8.70;;;5.95;;
61840;SDS011;47773;53.174;6.614;2022-08-23T03:10:36;11.55;;;5.80;;
61840;SDS011;47773;53.174;6.614;2022-08-23T03:13:06;9.57;;;5.55;;
61840;SDS011;47773;53.174;6.614;2022-08-23T03:15:31;13.30;;;6.30;;
61840;SDS011;47773;53.174;6.614;2022-08-23T03:17:57;8.57;;;5.70;;
61840;SDS011;47773;53.174;6.614;2022-08-23T03:20:22;8.98;;;5.50;;
61840;SDS011;47773;53.174;6.614;2022-08-23T03:22:48;11.18;;;5.32;;
61840;SDS011;47773;53.174;6.614;2022-08-23T03:25:14;8.85;;;6.03;;
61840;SDS011;47773;53.174;6.614;2022-08-23T03:27:39;11.85;;;5.32;;
61840;SDS011;47773;53.174;6.614;2022-08-23T03:30:05;7.93;;;5.57;;
61840;SDS011;47773;53.174;6.614;2022-08-23T03:32:31;10.60;;;5.65;;
61840;SDS011;47773;53.174;6.614;2022-08-23T03:34:57;7.22;;;5.60;;
61840;SDS011;47773;53.174;6.614;2022-08-23T03:37:23;10.35;;;5.25;;
61840;SDS011;47773;53.174;6.614;2022-08-23T03:39:49;7.93;;;5.47;;
61840;SDS011;47773;53.174;6.614;2022-08-23T03:42:16;11.02;;;5.35;;
61840;SDS011;47773;53.174;6.614;2022-08-23T03:44:42;10.57;;;5.45;;
61840;SDS011;47773;53.174;6.614;2022-08-23T03:47:07;10.38;;;5.43;;
61840;SDS011;47773;53.174;6.614;2022-08-23T03:49:33;7.22;;;4.82;;
61840;SDS011;47773;53.174;6.614;2022-08-23T03:51:59;7.00;;;4.82;;
61840;SDS011;47773;53.174;6.614;2022-08-23T03:54:27;6.72;;;4.30;;
61840;SDS011;47773;53.174;6.614;2022-08-23T03:57:04;5.22;;;4.30;;
61840;SDS011;47773;53.174;6.614;2022-08-23T03:59:33;8.50;;;5.28;;
61840;SDS011;47773;53.174;6.614;2022-08-23T04:02:00;7.55;;;5.38;;
61840;SDS011;47773;53.174;6.614;2022-08-23T04:04:26;7.22;;;5.50;;
61840;SDS011;47773;53.174;6.614;2022-08-23T04:06:52;8.50;;;4.88;;
61840;SDS011;47773;53.174;6.614;2022-08-23T04:09:17;7.53;;;4.70;;
61840;SDS011;47773;53.174;6.614;2022-08-23T04:11:43;6.75;;;4.60;;
61840;SDS011;47773;53.174;6.614;2022-08-23T04:14:10;7.43;;;4.85;;
61840;SDS011;47773;53.174;6.614;2022-08-23T04:16:37;7.95;;;4.22;;
61840;SDS011;47773;53.174;6.614;2022-08-23T04:19:08;9.57;;;5.28;;
61840;SDS011;47773;53.174;6.614;2022-08-23T04:21:37;9.75;;;5.78;;
61840;SDS011;47773;53.174;6.614;2022-08-23T04:24:03;8.30;;;5.68;;
61840;SDS011;47773;53.174;6.614;2022-08-23T04:26:29;10.15;;;5.00;;
61840;SDS011;47773;53.174;6.614;2022-08-23T04:28:55;6.82;;;4.72;;
61840;SDS011;47773;53.174;6.614;2022-08-23T04:31:21;11.68;;;4.85;;
61840;SDS011;47773;53.174;6.614;2022-08-23T04:33:50;11.85;;;5.32;;
61840;SDS011;47773;53.174;6.614;2022-08-23T04:36:17;8.00;;;5.65;;
61840;SDS011;47773;53.174;6.614;2022-08-23T04:38:42;9.18;;;5.10;;
61840;SDS011;47773;53.174;6.614;2022-08-23T04:41:08;8.10;;;5.38;;
61840;SDS011;47773;53.174;6.614;2022-08-23T04:43:52;9.20;;;5.03;;
61840;SDS011;47773;53.174;6.614;2022-08-23T04:46:19;6.70;;;4.80;;
61840;SDS011;47773;53.174;6.614;2022-08-23T04:48:45;9.40;;;5.60;;
61840;SDS011;47773;53.174;6.614;2022-08-23T04:51:11;8.05;;;6.18;;
61840;SDS011;47773;53.174;6.614;2022-08-23T04:53:37;9.15;;;5.35;;
61840;SDS011;47773;53.174;6.614;2022-08-23T04:56:04;7.53;;;5.82;;
61840;SDS011;47773;53.174;6.614;2022-08-23T04:58:31;10.63;;;5.82;;
61840;SDS011;47773;53.174;6.614;2022-08-23T05:00:59;9.73;;;6.88;;
61840;SDS011;47773;53.174;6.614;2022-08-23T05:03:26;10.60;;;7.35;;
61840;SDS011;47773;53.174;6.614;2022-08-23T05:05:53;11.88;;;7.07;;
61840;SDS011;47773;53.174;6.614;2022-08-23T05:08:20;8.63;;;6.82;;
61840;SDS011;47773;53.174;6.614;2022-08-23T05:10:46;13.18;;;7.00;;
61840;SDS011;47773;53.174;6.614;2022-08-23T05:13:12;9.07;;;6.50;;
61840;SDS011;47773;53.174;6.614;2022-08-23T05:15:38;10.32;;;6.00;;
61840;SDS011;47773;53.174;6.614;2022-08-23T05:18:04;8.05;;;6.03;;
61840;SDS011;47773;53.174;6.614;2022-08-23T05:20:30;14.43;;;6.53;;
61840;SDS011;47773;53.174;6.614;2022-08-23T05:22:58;19.02;;;7.30;;
61840;SDS011;47773;53.174;6.614;2022-08-23T05:25:24;20.40;;;7.55;;
61840;SDS011;47773;53.174;6.614;2022-08-23T05:28:10;16.38;;;8.18;;
61840;SDS011;47773;53.174;6.614;2022-08-23T05:30:36;16.70;;;7.80;;
61840;SDS011;47773;53.174;6.614;2022-08-23T05:33:02;12.65;;;8.35;;
61840;SDS011;47773;53.174;6.614;2022-08-23T05:35:29;16.25;;;8.40;;
61840;SDS011;47773;53.174;6.614;2022-08-23T05:37:54;17.75;;;9.38;;
61840;SDS011;47773;53.174;6.614;2022-08-23T05:40:23;21.85;;;10.27;;
61840;SDS011;47773;53.174;6.614;2022-08-23T05:42:50;27.75;;;9.77;;
61840;SDS011;47773;53.174;6.614;2022-08-23T05:45:16;15.98;;;9.48;;
61840;SDS011;47773;53.174;6.614;2022-08-23T05:47:41;20.13;;;9.95;;
61840;SDS011;47773;53.174;6.614;2022-08-23T05:50:07;23.25;;;10.93;;
61840;SDS011;47773;53.174;6.614;2022-08-23T05:52:33;22.27;;;12.82;;
61840;SDS011;47773;53.174;6.614;2022-08-23T05:54:59;24.67;;;12.23;;
61840;SDS011;47773;53.174;6.614;2022-08-23T05:57:24;16.60;;;11.82;;
61840;SDS011;47773;53.174;6.614;2022-08-23T05:59:50;20.48;;;12.45;;
61840;SDS011;47773;53.174;6.614;2022-08-23T06:02:15;26.65;;;14.88;;
61840;SDS011;47773;53.174;6.614;2022-08-23T06:04:41;23.67;;;15.70;;
61840;SDS011;47773;53.174;6.614;2022-08-23T06:07:06;26.33;;;16.08;;
61840;SDS011;47773;53.174;6.614;2022-08-23T06:09:34;24.63;;;15.88;;
61840;SDS011;47773;53.174;6.614;2022-08-23T06:11:59;27.65;;;16.42;;
61840;SDS011;47773;53.174;6.614;2022-08-23T06:14:26;28.67;;;16.13;;
61840;SDS011;47773;53.174;6.614;2022-08-23T06:16:52;26.67;;;15.52;;
61840;SDS011;47773;53.174;6.614;2022-08-23T06:19:18;22.67;;;16.38;;
61840;SDS011;47773;53.174;6.614;2022-08-23T06:21:43;22.88;;;16.25;;
61840;SDS011;47773;53.174;6.614;2022-08-23T06:24:10;23.42;;;15.23;;
61840;SDS011;47773;53.174;6.614;2022-08-23T06:26:37;24.10;;;15.10;;
61840;SDS011;47773;53.174;6.614;2022-08-23T06:29:07;25.08;;;15.10;;
61840;SDS011;47773;53.174;6.614;2022-08-23T06:31:38;19.83;;;14.98;;
61840;SDS011;47773;53.174;6.614;2022-08-23T06:36:51;23.20;;;14.65;;
61840;SDS011;47773;53.174;6.614;2022-08-23T06:39:22;23.13;;;14.15;;
61840;SDS011;47773;53.174;6.614;2022-08-23T06:41:50;17.63;;;13.27;;
61840;SDS011;47773;53.174;6.614;2022-08-23T06:44:17;21.52;;;13.93;;
61840;SDS011;47773;53.174;6.614;2022-08-23T06:46:43;16.67;;;12.52;;
61840;SDS011;47773;53.174;6.614;2022-08-23T06:49:11;17.08;;;12.27;;
61840;SDS011;47773;53.174;6.614;2022-08-23T06:51:41;17.58;;;12.05;;
61840;SDS011;47773;53.174;6.614;2022-08-23T06:54:10;17.80;;;11.75;;
61840;SDS011;47773;53.174;6.614;2022-08-23T06:56:39;21.33;;;11.68;;
61840;SDS011;47773;53.174;6.614;2022-08-23T06:59:05;21.85;;;11.18;;
61840;SDS011;47773;53.174;6.614;2022-08-23T07:01:33;16.75;;;10.88;;
61840;SDS011;47773;53.174;6.614;2022-08-23T07:04:04;23.73;;;11.80;;
61840;SDS011;47773;53.174;6.614;2022-08-23T07:06:31;16.70;;;11.15;;
61840;SDS011;47773;53.174;6.614;2022-08-23T07:08:57;18.38;;;10.77;;
61840;SDS011;47773;53.174;6.614;2022-08-23T07:11:24;20.23;;;9.90;;
61840;SDS011;47773;53.174;6.614;2022-08-23T07:13:50;17.52;;;9.65;;
61840;SDS011;47773;53.174;6.614;2022-08-23T07:16:19;14.93;;;10.25;;
61840;SDS011;47773;53.174;6.614;2022-08-23T07:18:46;12.70;;;9.02;;
61840;SDS011;47773;53.174;6.614;2022-08-23T07:21:13;15.25;;;9.63;;
61840;SDS011;47773;53.174;6.614;2022-08-23T07:23:39;13.50;;;9.02;;
61840;SDS011;47773;53.174;6.614;2022-08-23T07:26:08;16.48;;;8.52;;
61840;SDS011;47773;53.174;6.614;2022-08-23T07:28:35;11.77;;;8.80;;
61840;SDS011;47773;53.174;6.614;2022-08-23T07:31:10;12.85;;;8.35;;
61840;SDS011;47773;53.174;6.614;2022-08-23T07:33:38;15.52;;;8.77;;
61840;SDS011;47773;53.174;6.614;2022-08-23T07:36:05;20.40;;;8.98;;
61840;SDS011;47773;53.174;6.614;2022-08-23T07:38:31;16.50;;;8.85;;
61840;SDS011;47773;53.174;6.614;2022-08-23T07:40:57;16.65;;;8.73;;
61840;SDS011;47773;53.174;6.614;2022-08-23T07:43:23;15.13;;;7.85;;
61840;SDS011;47773;53.174;6.614;2022-08-23T07:45:48;14.65;;;8.50;;
61840;SDS011;47773;53.174;6.614;2022-08-23T07:48:14;12.68;;;8.73;;
61840;SDS011;47773;53.174;6.614;2022-08-23T07:50:40;16.90;;;8.40;;
61840;SDS011;47773;53.174;6.614;2022-08-23T07:53:06;12.80;;;8.27;;
61840;SDS011;47773;53.174;6.614;2022-08-23T07:55:32;18.05;;;8.73;;
61840;SDS011;47773;53.174;6.614;2022-08-23T07:57:58;17.63;;;9.85;;
61840;SDS011;47773;53.174;6.614;2022-08-23T08:00:25;14.07;;;8.95;;
61840;SDS011;47773;53.174;6.614;2022-08-23T08:02:51;19.90;;;9.63;;
61840;SDS011;47773;53.174;6.614;2022-08-23T08:05:17;18.50;;;9.80;;
61840;SDS011;47773;53.174;6.614;2022-08-23T08:07:42;18.73;;;9.90;;
61840;SDS011;47773;53.174;6.614;2022-08-23T08:10:08;15.52;;;9.57;;
61840;SDS011;47773;53.174;6.614;2022-08-23T08:12:35;20.25;;;9.98;;
61840;SDS011;47773;53.174;6.614;2022-08-23T08:15:01;18.40;;;10.05;;
61840;SDS011;47773;53.174;6.614;2022-08-23T08:17:27;15.85;;;9.85;;
61840;SDS011;47773;53.174;6.614;2022-08-23T08:19:52;12.25;;;8.40;;
61840;SDS011;47773;53.174;6.614;2022-08-23T08:22:18;14.27;;;8.60;;
61840;SDS011;47773;53.174;6.614;2022-08-23T08:24:44;16.73;;;9.25;;
61840;SDS011;47773;53.174;6.614;2022-08-23T08:27:09;14.65;;;8.52;;
61840;SDS011;47773;53.174;6.614;2022-08-23T08:29:35;16.67;;;8.68;;
61840;SDS011;47773;53.174;6.614;2022-08-23T08:32:01;15.75;;;8.40;;
61840;SDS011;47773;53.174;6.614;2022-08-23T08:34:27;11.40;;;8.10;;
61840;SDS011;47773;53.174;6.614;2022-08-23T08:36:54;17.38;;;7.53;;
61840;SDS011;47773;53.174;6.614;2022-08-23T08:39:23;14.05;;;7.65;;
61840;SDS011;47773;53.174;6.614;2022-08-23T08:55:06;12.32;;;6.35;;
61840;SDS011;47773;53.174;6.614;2022-08-23T08:57:42;13.30;;;6.78;;
61840;SDS011;47773;53.174;6.614;2022-08-23T09:00:12;11.90;;;5.88;;
61840;SDS011;47773;53.174;6.614;2022-08-23T09:02:41;13.77;;;6.15;;
61840;SDS011;47773;53.174;6.614;2022-08-23T09:05:44;11.18;;;6.22;;
61840;SDS011;47773;53.174;6.614;2022-08-23T09:16:13;15.55;;;5.30;;
61840;SDS011;47773;53.174;6.614;2022-08-23T09:19:02;15.80;;;6.03;;
61840;SDS011;47773;53.174;6.614;2022-08-23T09:21:36;10.60;;;4.78;;
61840;SDS011;47773;53.174;6.614;2022-08-23T09:24:13;13.20;;;5.40;;
61840;SDS011;47773;53.174;6.614;2022-08-23T09:26:40;10.70;;;4.05;;
61840;SDS011;47773;53.174;6.614;2022-08-23T09:29:13;8.48;;;4.22;;
61840;SDS011;47773;53.174;6.614;2022-08-23T09:31:43;7.95;;;3.78;;
61840;SDS011;47773;53.174;6.614;2022-08-23T09:39:40;11.18;;;4.18;;
61840;SDS011;47773;53.174;6.614;2022-08-23T09:44:53;10.75;;;4.25;;
61840;SDS011;47773;53.174;6.614;2022-08-23T09:47:20;6.45;;;3.90;;
61840;SDS011;47773;53.174;6.614;2022-08-23T09:49:56;11.45;;;4.80;;
61840;SDS011;47773;53.174;6.614;2022-08-23T09:52:34;9.63;;;4.60;;
61840;SDS011;47773;53.174;6.614;2022-08-23T09:55:05;12.30;;;4.18;;
61840;SDS011;47773;53.174;6.614;2022-08-23T09:57:58;9.50;;;4.63;;
61840;SDS011;47773;53.174;6.614;2022-08-23T10:00:32;12.48;;;4.22;;
61840;SDS011;47773;53.174;6.614;2022-08-23T10:05:48;13.07;;;4.57;;
61840;SDS011;47773;53.174;6.614;2022-08-23T10:08:24;8.45;;;3.63;;
61840;SDS011;47773;53.174;6.614;2022-08-23T10:10:57;9.93;;;4.00;;
61840;SDS011;47773;53.174;6.614;2022-08-23T10:33:28;10.30;;;4.13;;
61840;SDS011;47773;53.174;6.614;2022-08-23T10:39:22;10.98;;;3.60;;
61840;SDS011;47773;53.174;6.614;2022-08-23T10:41:49;11.65;;;4.47;;
61840;SDS011;47773;53.174;6.614;2022-08-23T10:44:23;12.57;;;4.13;;
61840;SDS011;47773;53.174;6.614;2022-08-23T10:49:54;11.48;;;3.75;;
61840;SDS011;47773;53.174;6.614;2022-08-23T10:52:31;12.15;;;4.30;;
61840;SDS011;47773;53.174;6.614;2022-08-23T10:55:05;9.88;;;3.80;;
61840;SDS011;47773;53.174;6.614;2022-08-23T10:57:54;14.77;;;4.28;;
61840;SDS011;47773;53.174;6.614;2022-08-23T11:00:21;9.55;;;4.55;;
61840;SDS011;47773;53.174;6.614;2022-08-23T11:05:44;8.75;;;4.30;;
61840;SDS011;47773;53.174;6.614;2022-08-23T11:08:59;7.95;;;4.15;;
61840;SDS011;47773;53.174;6.614;2022-08-23T11:11:32;12.10;;;4.35;;
61840;SDS011;47773;53.174;6.614;2022-08-23T11:14:09;15.80;;;4.55;;
61840;SDS011;47773;53.174;6.614;2022-08-23T11:16:59;11.15;;;4.75;;
61840;SDS011;47773;53.174;6.614;2022-08-23T11:22:21;10.05;;;3.80;;
61840;SDS011;47773;53.174;6.614;2022-08-23T11:24:52;10.00;;;4.00;;
61840;SDS011;47773;53.174;6.614;2022-08-23T11:29:54;13.68;;;4.78;;
61840;SDS011;47773;53.174;6.614;2022-08-23T11:32:30;8.45;;;3.90;;
61840;SDS011;47773;53.174;6.614;2022-08-23T11:38:02;9.40;;;4.43;;
61840;SDS011;47773;53.174;6.614;2022-08-23T11:40:35;12.02;;;4.78;;
61840;SDS011;47773;53.174;6.614;2022-08-23T11:43:05;7.93;;;3.70;;
61840;SDS011;47773;53.174;6.614;2022-08-23T11:48:23;11.88;;;4.55;;
61840;SDS011;47773;53.174;6.614;2022-08-23T11:54:20;15.35;;;4.47;;
61840;SDS011;47773;53.174;6.614;2022-08-23T12:02:25;10.35;;;3.95;;
61840;SDS011;47773;53.174;6.614;2022-08-23T12:04:56;9.50;;;4.32;;
61840;SDS011;47773;53.174;6.614;2022-08-23T12:10:13;8.65;;;4.20;;
61840;SDS011;47773;53.174;6.614;2022-08-23T12:12:46;7.20;;;3.92;;
61840;SDS011;47773;53.174;6.614;2022-08-23T12:16:30;14.00;;;3.90;;
61840;SDS011;47773;53.174;6.614;2022-08-23T12:18:30;9.32;;;4.25;;
61840;SDS011;47773;53.174;6.614;2022-08-23T12:21:02;10.13;;;3.78;;
61840;SDS011;47773;53.174;6.614;2022-08-23T12:23:30;12.43;;;4.00;;
61840;SDS011;47773;53.174;6.614;2022-08-23T12:26:08;12.32;;;4.03;;
61840;SDS011;47773;53.174;6.614;2022-08-23T12:28:46;7.93;;;4.22;;
61840;SDS011;47773;53.174;6.614;2022-08-23T12:33:54;11.18;;;4.45;;
61840;SDS011;47773;53.174;6.614;2022-08-23T12:36:42;9.20;;;4.35;;
61840;SDS011;47773;53.174;6.614;2022-08-23T12:39:19;10.55;;;3.88;;
61840;SDS011;47773;53.174;6.614;2022-08-23T12:41:51;7.07;;;3.90;;
61840;SDS011;47773;53.174;6.614;2022-08-23T12:44:19;11.02;;;3.92;;
61840;SDS011;47773;53.174;6.614;2022-08-23T12:46:48;13.57;;;4.45;;
61840;SDS011;47773;53.174;6.614;2022-08-23T12:49:23;6.88;;;3.28;;
61840;SDS011;47773;53.174;6.614;2022-08-23T12:51:56;7.15;;;3.35;;
61840;SDS011;47773;53.174;6.614;2022-08-23T12:54:43;15.60;;;3.63;;
61840;SDS011;47773;53.174;6.614;2022-08-23T12:57:15;13.40;;;3.85;;
61840;SDS011;47773;53.174;6.614;2022-08-23T13:02:40;8.80;;;3.53;;
61840;SDS011;47773;53.174;6.614;2022-08-23T13:05:14;6.85;;;3.15;;
61840;SDS011;47773;53.174;6.614;2022-08-23T13:08:06;13.73;;;3.80;;
61840;SDS011;47773;53.174;6.614;2022-08-23T13:10:35;10.52;;;3.33;;
61840;SDS011;47773;53.174;6.614;2022-08-23T13:13:03;7.80;;;3.67;;
61840;SDS011;47773;53.174;6.614;2022-08-23T13:15:38;9.43;;;3.40;;
61840;SDS011;47773;53.174;6.614;2022-08-23T13:18:25;10.57;;;3.45;;
61840;SDS011;47773;53.174;6.614;2022-08-23T13:21:14;7.70;;;3.30;;
61840;SDS011;47773;53.174;6.614;2022-08-23T13:23:42;10.48;;;3.47;;
61840;SDS011;47773;53.174;6.614;2022-08-23T13:29:09;9.95;;;3.65;;
61840;SDS011;47773;53.174;6.614;2022-08-23T13:31:58;9.00;;;3.55;;
61840;SDS011;47773;53.174;6.614;2022-08-23T13:37:15;16.70;;;3.80;;
61840;SDS011;47773;53.174;6.614;2022-08-23T13:39:46;9.75;;;3.70;;
61840;SDS011;47773;53.174;6.614;2022-08-23T13:42:25;8.07;;;3.47;;
61840;SDS011;47773;53.174;6.614;2022-08-23T13:44:55;7.95;;;3.38;;
61840;SDS011;47773;53.174;6.614;2022-08-23T13:47:22;8.20;;;3.70;;
61840;SDS011;47773;53.174;6.614;2022-08-23T13:49:50;8.88;;;3.55;;
61840;SDS011;47773;53.174;6.614;2022-08-23T13:52:17;20.45;;;3.85;;
61840;SDS011;47773;53.174;6.614;2022-08-23T13:54:43;22.17;;;4.13;;
61840;SDS011;47773;53.174;6.614;2022-08-23T13:57:12;8.45;;;3.80;;
61840;SDS011;47773;53.174;6.614;2022-08-23T13:59:45;9.82;;;3.60;;
61840;SDS011;47773;53.174;6.614;2022-08-23T14:02:15;24.88;;;3.78;;
61840;SDS011;47773;53.174;6.614;2022-08-23T14:04:42;15.20;;;3.85;;
61840;SDS011;47773;53.174;6.614;2022-08-23T14:07:08;9.70;;;3.92;;
61840;SDS011;47773;53.174;6.614;2022-08-23T14:09:35;14.13;;;3.95;;
61840;SDS011;47773;53.174;6.614;2022-08-23T14:12:03;10.25;;;3.58;;
61840;SDS011;47773;53.174;6.614;2022-08-23T14:14:32;6.97;;;3.83;;
61840;SDS011;47773;53.174;6.614;2022-08-23T14:16:59;10.70;;;4.00;;
61840;SDS011;47773;53.174;6.614;2022-08-23T14:19:25;11.13;;;3.90;;
61840;SDS011;47773;53.174;6.614;2022-08-23T14:21:51;10.38;;;3.88;;
61840;SDS011;47773;53.174;6.614;2022-08-23T14:24:17;7.88;;;3.88;;
61840;SDS011;47773;53.174;6.614;2022-08-23T14:26:43;9.90;;;3.83;;
61840;SDS011;47773;53.174;6.614;2022-08-23T14:29:09;10.10;;;3.60;;
61840;SDS011;47773;53.174;6.614;2022-08-23T14:31:35;8.05;;;3.80;;
61840;SDS011;47773;53.174;6.614;2022-08-23T14:34:01;12.82;;;3.65;;
61840;SDS011;47773;53.174;6.614;2022-08-23T14:36:27;7.35;;;3.35;;
61840;SDS011;47773;53.174;6.614;2022-08-23T14:38:52;9.00;;;3.83;;
61840;SDS011;47773;53.174;6.614;2022-08-23T14:41:19;7.85;;;3.92;;
61840;SDS011;47773;53.174;6.614;2022-08-23T14:43:47;11.68;;;4.15;;
61840;SDS011;47773;53.174;6.614;2022-08-23T14:46:13;14.88;;;4.43;;
61840;SDS011;47773;53.174;6.614;2022-08-23T14:48:39;14.70;;;4.22;;
61840;SDS011;47773;53.174;6.614;2022-08-23T14:51:08;7.57;;;4.00;;
61840;SDS011;47773;53.174;6.614;2022-08-23T14:54:04;8.13;;;3.95;;
61840;SDS011;47773;53.174;6.614;2022-08-23T14:56:31;9.63;;;4.07;;
61840;SDS011;47773;53.174;6.614;2022-08-23T14:58:58;9.18;;;3.90;;
61840;SDS011;47773;53.174;6.614;2022-08-23T15:01:24;9.00;;;4.38;;
61840;SDS011;47773;53.174;6.614;2022-08-23T15:03:50;7.40;;;3.70;;
61840;SDS011;47773;53.174;6.614;2022-08-23T15:06:16;9.15;;;3.97;;
61840;SDS011;47773;53.174;6.614;2022-08-23T15:08:43;8.52;;;4.13;;
61840;SDS011;47773;53.174;6.614;2022-08-23T15:11:10;8.63;;;4.28;;
61840;SDS011;47773;53.174;6.614;2022-08-23T15:13:36;10.15;;;4.20;;
61840;SDS011;47773;53.174;6.614;2022-08-23T15:16:03;11.57;;;4.40;;
61840;SDS011;47773;53.174;6.614;2022-08-23T15:18:31;9.35;;;4.35;;
61840;SDS011;47773;53.174;6.614;2022-08-23T15:20:58;10.13;;;4.10;;
61840;SDS011;47773;53.174;6.614;2022-08-23T15:23:24;9.00;;;4.05;;
61840;SDS011;47773;53.174;6.614;2022-08-23T15:25:50;8.13;;;3.95;;
61840;SDS011;47773;53.174;6.614;2022-08-23T15:28:16;8.93;;;4.82;;
61840;SDS011;47773;53.174;6.614;2022-08-23T15:30:44;9.60;;;4.43;;
61840;SDS011;47773;53.174;6.614;2022-08-23T15:33:09;10.35;;;4.80;;
61840;SDS011;47773;53.174;6.614;2022-08-23T15:35:37;11.45;;;4.40;;
61840;SDS011;47773;53.174;6.614;2022-08-23T15:38:06;11.02;;;4.28;;
61840;SDS011;47773;53.174;6.614;2022-08-23T15:40:32;10.50;;;5.15;;
61840;SDS011;47773;53.174;6.614;2022-08-23T15:42:58;9.05;;;4.70;;
61840;SDS011;47773;53.174;6.614;2022-08-23T15:45:24;9.75;;;4.68;;
61840;SDS011;47773;53.174;6.614;2022-08-23T15:47:51;14.70;;;4.93;;
61840;SDS011;47773;53.174;6.614;2022-08-23T15:50:20;11.45;;;4.72;;
61840;SDS011;47773;53.174;6.614;2022-08-23T15:52:48;15.20;;;4.70;;
61840;SDS011;47773;53.174;6.614;2022-08-23T15:55:14;10.85;;;4.80;;
61840;SDS011;47773;53.174;6.614;2022-08-23T15:57:42;13.18;;;4.47;;
61840;SDS011;47773;53.174;6.614;2022-08-23T16:00:11;15.45;;;5.07;;
61840;SDS011;47773;53.174;6.614;2022-08-23T16:02:38;10.75;;;4.50;;
61840;SDS011;47773;53.174;6.614;2022-08-23T16:05:05;14.32;;;4.68;;
61840;SDS011;47773;53.174;6.614;2022-08-23T16:07:31;15.18;;;5.10;;
61840;SDS011;47773;53.174;6.614;2022-08-23T16:09:58;16.17;;;4.95;;
61840;SDS011;47773;53.174;6.614;2022-08-23T16:12:25;12.82;;;5.28;;
61840;SDS011;47773;53.174;6.614;2022-08-23T16:14:51;8.80;;;5.00;;
61840;SDS011;47773;53.174;6.614;2022-08-23T16:17:18;10.43;;;4.55;;
61840;SDS011;47773;53.174;6.614;2022-08-23T16:19:44;12.93;;;4.85;;
61840;SDS011;47773;53.174;6.614;2022-08-23T16:22:11;9.13;;;4.60;;
61840;SDS011;47773;53.174;6.614;2022-08-23T16:24:37;9.35;;;4.75;;
61840;SDS011;47773;53.174;6.614;2022-08-23T16:27:03;10.32;;;4.70;;
61840;SDS011;47773;53.174;6.614;2022-08-23T16:29:30;11.20;;;5.03;;
61840;SDS011;47773;53.174;6.614;2022-08-23T16:31:58;13.05;;;5.00;;
61840;SDS011;47773;53.174;6.614;2022-08-23T16:34:24;10.35;;;5.28;;
61840;SDS011;47773;53.174;6.614;2022-08-23T16:36:51;11.00;;;5.13;;